createdAt,value
2022-12-24T00:01:34.186Z,97914.78
2022-12-24T00:04:00.979Z,97911.34
2022-12-24T00:06:27.489Z,97919.88
2022-12-24T00:08:54.030Z,97912.78
2022-12-24T00:11:21.114Z,97928.97
2022-12-24T00:13:48.128Z,97915.38
2022-12-24T00:16:15.072Z,97912.34
2022-12-24T00:18:45.818Z,97924.69
2022-12-24T00:21:14.185Z,97936.38
2022-12-24T00:23:40.915Z,97938.59
2022-12-24T00:26:07.836Z,97934.16
2022-12-24T00:28:34.322Z,97945.69
2022-12-24T00:31:07.429Z,97946.06
2022-12-24T00:33:33.933Z,97951.91
2022-12-24T00:36:00.389Z,97951.94
2022-12-24T00:38:26.904Z,97961.03
2022-12-24T00:40:58.858Z,97956.00
2022-12-24T00:43:25.329Z,97955.41
2022-12-24T00:45:51.805Z,97952.16
2022-12-24T00:48:18.376Z,97953.56
2022-12-24T00:50:44.954Z,97958.19
2022-12-24T00:53:11.440Z,97963.38
2022-12-24T00:55:37.998Z,97962.75
2022-12-24T00:58:04.462Z,97966.97
2022-12-24T01:00:30.987Z,97955.44
2022-12-24T01:02:57.704Z,97961.94
2022-12-24T01:05:24.479Z,97967.03
2022-12-24T01:07:50.991Z,97963.22
2022-12-24T01:10:20.266Z,97973.31
2022-12-24T01:12:47.383Z,97985.66
2022-12-24T01:15:14.752Z,97989.63
2022-12-24T01:17:41.404Z,97988.03
2022-12-24T01:20:11.351Z,97993.06
2022-12-24T01:22:37.796Z,98002.78
2022-12-24T01:25:05.031Z,98013.50
2022-12-24T01:27:32.930Z,98016.53
2022-12-24T01:29:59.388Z,98006.06
2022-12-24T01:32:25.853Z,98016.38
2022-12-24T01:34:52.308Z,98025.84
2022-12-24T01:37:18.751Z,98040.81
2022-12-24T01:39:45.300Z,98044.47
2022-12-24T01:42:37.063Z,98036.94
2022-12-24T01:45:34.248Z,98028.75
2022-12-24T01:48:00.898Z,98028.75
2022-12-24T01:50:27.535Z,98024.53
2022-12-24T01:52:54.325Z,98027.84
2022-12-24T01:55:21.024Z,98030.50
2022-12-24T01:57:59.547Z,98037.00
2022-12-24T02:00:26.100Z,98029.94
2022-12-24T02:02:53.812Z,98030.94
2022-12-24T02:05:49.928Z,98036.59
2022-12-24T02:08:17.761Z,98025.59
2022-12-24T02:10:45.822Z,98011.00
2022-12-24T02:13:14.195Z,98027.19
2022-12-24T02:16:05.235Z,98025.47
2022-12-24T02:18:43.896Z,98030.31
2022-12-24T02:21:34.979Z,98045.34
2022-12-24T02:24:17.662Z,98057.56
2022-12-24T02:27:02.536Z,98061.66
2022-12-24T02:30:05.517Z,98057.06
2022-12-24T02:32:46.603Z,98054.97
2022-12-24T02:35:32.967Z,98059.44
2022-12-24T02:38:06.243Z,98062.38
2022-12-24T02:40:46.815Z,98057.81
2022-12-24T02:43:19.604Z,98055.84
2022-12-24T02:45:56.915Z,98055.50
2022-12-24T02:48:27.763Z,98075.94
2022-12-24T02:51:07.109Z,98064.84
2022-12-24T02:53:34.254Z,98067.75
2022-12-24T02:56:14.874Z,98072.38
2022-12-24T02:59:00.418Z,98072.44
2022-12-24T03:01:58.037Z,98075.22
2022-12-24T03:04:57.060Z,98075.31
2022-12-24T03:07:34.738Z,98069.16
2022-12-24T03:10:13.198Z,98065.00
2022-12-24T03:12:44.036Z,98074.94
2022-12-24T03:15:15.578Z,98083.69
2022-12-24T03:17:46.116Z,98083.09
2022-12-24T03:20:17.749Z,98094.09
2022-12-24T03:22:44.539Z,98090.56
2022-12-24T03:25:11.024Z,98087.94
2022-12-24T03:27:38.788Z,98085.09
2022-12-24T03:30:10.658Z,98088.84
2022-12-24T03:32:37.095Z,98081.72
2022-12-24T03:35:03.829Z,98086.56
2022-12-24T03:37:30.310Z,98094.13
2022-12-24T03:39:56.852Z,98089.47
2022-12-24T03:42:23.302Z,98105.47
2022-12-24T03:44:49.890Z,98109.75
2022-12-24T03:47:16.396Z,98110.19
2022-12-24T03:49:43.108Z,98115.53
2022-12-24T03:52:09.550Z,98108.44
2022-12-24T03:54:35.999Z,98113.72
2022-12-24T03:57:02.483Z,98117.38
2022-12-24T03:59:28.960Z,98126.72
2022-12-24T04:01:55.676Z,98139.50
2022-12-24T04:04:22.329Z,98129.34
2022-12-24T04:06:48.753Z,98137.25
2022-12-24T04:09:15.820Z,98136.84
2022-12-24T04:11:42.305Z,98146.34
2022-12-24T04:14:08.771Z,98148.81
2022-12-24T04:16:35.260Z,98157.16
2022-12-24T04:19:01.772Z,98148.66
2022-12-24T04:21:28.234Z,98159.38
2022-12-24T04:23:54.728Z,98160.13
2022-12-24T04:26:21.205Z,98153.28
2022-12-24T04:28:47.664Z,98159.34
2022-12-24T04:31:16.736Z,98150.22
2022-12-24T04:33:43.937Z,98152.03
2022-12-24T04:36:13.349Z,98156.25
2022-12-24T04:38:40.052Z,98150.81
2022-12-24T04:41:26.783Z,98160.13
2022-12-24T04:43:54.783Z,98158.13
2022-12-24T04:46:30.850Z,98155.28
2022-12-24T04:48:58.264Z,98153.03
2022-12-24T04:51:26.546Z,98148.19
2022-12-24T04:53:53.636Z,98151.41
2022-12-24T04:56:23.119Z,98151.44
2022-12-24T04:58:50.274Z,98151.63
2022-12-24T05:01:30.779Z,98149.19
2022-12-24T05:03:58.102Z,98152.84
2022-12-24T05:06:29.634Z,98160.53
2022-12-24T05:08:57.554Z,98159.34
2022-12-24T05:11:24.340Z,98153.44
2022-12-24T05:13:51.023Z,98162.22
2022-12-24T05:16:19.874Z,98156.09
2022-12-24T05:18:46.643Z,98147.16
2022-12-24T05:21:19.647Z,98150.22
2022-12-24T05:24:05.107Z,98156.13
2022-12-24T05:26:41.300Z,98157.69
2022-12-24T05:29:08.508Z,98148.19
2022-12-24T05:31:36.211Z,98164.78
2022-12-24T05:34:03.416Z,98161.19
2022-12-24T05:36:30.468Z,98170.28
2022-12-24T05:38:57.021Z,98166.00
2022-12-24T05:41:23.605Z,98176.50
2022-12-24T05:43:50.223Z,98177.94
2022-12-24T05:46:19.667Z,98178.94
2022-12-24T05:48:47.325Z,98183.22
2022-12-24T05:51:15.321Z,98177.94
2022-12-24T05:53:41.810Z,98186.44
2022-12-24T05:56:10.251Z,98180.84
2022-12-24T05:58:37.231Z,98182.41
2022-12-24T06:01:05.607Z,98178.66
2022-12-24T06:03:32.870Z,98176.78
2022-12-24T06:06:07.208Z,98182.84
2022-12-24T06:08:34.794Z,98190.38
2022-12-24T06:11:05.489Z,98198.88
2022-12-24T06:13:32.532Z,98198.28
2022-12-24T06:16:00.873Z,98200.25
2022-12-24T06:18:30.019Z,98199.88
2022-12-24T06:20:58.203Z,98199.38
2022-12-24T06:23:25.681Z,98211.16
2022-12-24T06:25:52.284Z,98214.34
2022-12-24T06:28:18.928Z,98216.66
2022-12-24T06:30:50.576Z,98221.78
2022-12-24T06:33:17.720Z,98220.09
2022-12-24T06:35:48.064Z,98216.75
2022-12-24T06:38:15.767Z,98203.97
2022-12-24T06:40:44.386Z,98217.94
2022-12-24T06:43:11.339Z,98225.41
2022-12-24T06:45:37.887Z,98216.94
2022-12-24T06:48:04.826Z,98234.94
2022-12-24T06:50:32.835Z,98234.56
2022-12-24T06:52:59.304Z,98233.38
2022-12-24T06:55:25.760Z,98233.94
2022-12-24T06:57:52.221Z,98236.75
2022-12-24T07:00:19.011Z,98238.97
2022-12-24T07:02:45.553Z,98235.88
2022-12-24T07:05:13.344Z,98229.19
2022-12-24T07:07:44.739Z,98220.81
2022-12-24T07:10:13.635Z,98232.72
2022-12-24T07:12:40.069Z,98231.41
2022-12-24T07:15:07.088Z,98224.50
2022-12-24T07:17:33.698Z,98224.16
2022-12-24T07:20:00.254Z,98225.31
2022-12-24T07:22:26.784Z,98226.34
2022-12-24T07:24:53.253Z,98233.59
2022-12-24T07:27:20.538Z,98232.41
2022-12-24T07:29:47.616Z,98238.94
2022-12-24T07:32:14.175Z,98239.81
2022-12-24T07:34:40.690Z,98249.72
2022-12-24T07:37:07.887Z,98250.41
2022-12-24T07:39:34.479Z,98243.31
2022-12-24T07:42:01.113Z,98246.03
2022-12-24T07:44:27.585Z,98260.84
2022-12-24T07:46:54.150Z,98256.78
2022-12-24T07:49:20.620Z,98264.31
2022-12-24T07:51:47.171Z,98271.63
2022-12-24T07:54:13.678Z,98270.38
2022-12-24T07:56:40.135Z,98281.84
2022-12-24T07:59:06.620Z,98277.22
2022-12-24T08:01:33.183Z,98281.09
2022-12-24T08:03:59.809Z,98295.09
2022-12-24T08:06:26.279Z,98303.81
2022-12-24T08:08:52.724Z,98297.94
2022-12-24T08:11:19.213Z,98295.56
2022-12-24T08:13:45.696Z,98289.31
2022-12-24T08:16:12.564Z,98289.31
2022-12-24T08:18:39.079Z,98294.44
2022-12-24T08:21:08.801Z,98289.81
2022-12-24T08:23:36.504Z,98295.69
2022-12-24T08:26:03.182Z,98299.91
2022-12-24T08:28:29.833Z,98300.38
2022-12-24T08:30:56.310Z,98297.59
2022-12-24T08:33:22.788Z,98303.50
2022-12-24T08:35:54.640Z,98313.84
2022-12-24T08:38:22.103Z,98312.97
2022-12-24T08:40:49.972Z,98313.22
2022-12-24T08:43:18.050Z,98314.22
2022-12-24T08:45:45.274Z,98320.72
2022-12-24T08:48:11.961Z,98321.66
2022-12-24T08:50:40.622Z,98321.69
2022-12-24T08:56:09.897Z,98330.81
2022-12-24T08:58:37.131Z,98333.72
2022-12-24T09:01:11.141Z,98334.41
2022-12-24T09:03:37.659Z,98339.84
2022-12-24T09:06:05.239Z,98338.59
2022-12-24T09:08:32.711Z,98334.34
2022-12-24T09:11:05.056Z,98339.66
2022-12-24T09:13:31.547Z,98349.56
2022-12-24T09:15:58.840Z,98351.44
2022-12-24T09:18:26.416Z,98353.56
2022-12-24T09:20:59.442Z,98350.34
2022-12-24T09:23:26.405Z,98355.59
2022-12-24T09:25:52.931Z,98366.75
2022-12-24T09:28:19.982Z,98375.84
2022-12-24T09:30:55.706Z,98382.75
2022-12-24T09:33:22.178Z,98382.19
2022-12-24T09:35:51.411Z,98396.00
2022-12-24T09:38:18.585Z,98402.13
2022-12-24T09:40:45.159Z,98388.25
2022-12-24T09:43:18.443Z,98391.94
2022-12-24T09:45:56.783Z,98399.22
2022-12-24T09:48:29.426Z,98403.50
2022-12-24T09:51:03.319Z,98400.91
2022-12-24T09:53:51.551Z,98401.00
2022-12-24T09:56:24.930Z,98386.41
2022-12-24T09:58:57.454Z,98391.56
2022-12-24T10:01:24.086Z,98393.22
2022-12-24T10:03:50.715Z,98398.59
2022-12-24T10:06:29.645Z,98399.22
2022-12-24T10:09:11.441Z,98408.44
2022-12-24T10:12:19.540Z,98417.03
2022-12-24T10:15:24.959Z,98408.97
2022-12-24T10:18:06.091Z,98411.03
2022-12-24T10:20:57.191Z,98403.78
2022-12-24T10:23:32.063Z,98406.84
2022-12-24T10:26:46.207Z,98402.38
2022-12-24T10:29:20.844Z,98406.22
2022-12-24T10:32:05.894Z,98408.13
2022-12-24T10:34:40.381Z,98412.28
2022-12-24T10:37:18.565Z,98402.56
2022-12-24T10:39:45.258Z,98401.47
2022-12-24T10:42:16.184Z,98400.59
2022-12-24T10:44:45.567Z,98406.31
2022-12-24T10:47:13.431Z,98399.22
2022-12-24T10:49:47.245Z,98398.69
2022-12-24T10:52:21.570Z,98405.00
2022-12-24T10:55:17.093Z,98408.88
2022-12-24T10:57:45.075Z,98410.09
2022-12-24T11:00:22.817Z,98408.06
2022-12-24T11:03:05.027Z,98413.75
2022-12-24T11:05:34.639Z,98407.44
2022-12-24T11:08:17.370Z,98407.88
2022-12-24T11:11:05.730Z,98418.22
2022-12-24T11:13:38.233Z,98412.53
2022-12-24T11:16:17.760Z,98416.59
2022-12-24T11:18:53.928Z,98418.00
2022-12-24T11:21:32.879Z,98418.97
2022-12-24T11:24:06.188Z,98430.38
2022-12-24T11:26:32.670Z,98421.38
2022-12-24T11:29:16.456Z,98412.63
2022-12-24T11:31:44.770Z,98413.84
2022-12-24T11:34:31.460Z,98400.28
2022-12-24T11:37:16.861Z,98400.13
2022-12-24T11:39:49.760Z,98401.53
2022-12-24T11:42:24.072Z,98400.25
2022-12-24T11:44:56.490Z,98401.72
2022-12-24T11:47:34.975Z,98398.16
2022-12-24T11:50:25.404Z,98403.19
2022-12-24T11:53:04.260Z,98392.09
2022-12-24T11:55:33.924Z,98392.78
2022-12-24T11:58:15.314Z,98394.03
2022-12-24T12:00:44.413Z,98393.59
2022-12-24T12:03:42.168Z,98392.41
2022-12-24T12:06:25.576Z,98400.13
2022-12-24T12:09:01.339Z,98408.25
2022-12-24T12:11:29.276Z,98400.94
2022-12-24T12:13:59.861Z,98394.22
2022-12-24T12:16:58.097Z,98415.78
2022-12-24T12:19:27.918Z,98413.72
2022-12-24T12:21:54.577Z,98416.78
2022-12-24T12:24:37.192Z,98408.69
2022-12-24T12:27:10.919Z,98421.66
2022-12-24T12:29:44.846Z,98415.38
2022-12-24T12:32:24.750Z,98414.75
2022-12-24T12:35:50.723Z,98410.66
2022-12-24T12:38:23.754Z,98411.88
2022-12-24T12:41:24.199Z,98411.69
2022-12-24T12:44:03.500Z,98408.13
2022-12-24T12:46:41.971Z,98417.19
2022-12-24T12:49:36.058Z,98417.38
2022-12-24T12:52:17.059Z,98418.63
2022-12-24T12:55:22.197Z,98425.75
2022-12-24T12:57:53.091Z,98419.63
2022-12-24T13:00:20.057Z,98425.97
2022-12-24T13:03:09.289Z,98421.78
2022-12-24T13:05:57.852Z,98418.31
2022-12-24T13:08:39.575Z,98408.53
2022-12-24T13:11:20.684Z,98404.44
2022-12-24T13:13:54.010Z,98412.59
2022-12-24T13:16:35.399Z,98411.34
2022-12-24T13:19:14.100Z,98416.56
2022-12-24T13:21:45.927Z,98408.63
2022-12-24T13:24:18.932Z,98417.78
2022-12-24T13:27:18.656Z,98417.16
2022-12-24T13:29:54.231Z,98422.66
2022-12-24T13:32:20.617Z,98428.94
2022-12-24T13:34:52.776Z,98424.66
2022-12-24T13:37:32.564Z,98423.50
2022-12-24T13:40:08.513Z,98432.31
2022-12-24T13:43:04.658Z,98429.22
2022-12-24T13:45:31.586Z,98435.25
2022-12-24T13:48:00.970Z,98442.22
2022-12-24T13:50:38.319Z,98434.88
2022-12-24T13:53:07.069Z,98439.78
2022-12-24T13:55:34.581Z,98430.47
2022-12-24T13:58:05.815Z,98432.28
2022-12-24T14:00:42.507Z,98429.28
2022-12-24T14:03:15.400Z,98423.72
2022-12-24T14:05:51.045Z,98422.91
2022-12-24T14:08:30.394Z,98428.03
2022-12-24T14:11:08.067Z,98420.09
2022-12-24T14:13:40.503Z,98415.22
2022-12-24T14:16:11.998Z,98422.13
2022-12-24T14:18:40.784Z,98421.19
2022-12-24T14:21:15.497Z,98421.63
2022-12-24T14:24:03.347Z,98420.59
2022-12-24T14:26:36.345Z,98427.28
2022-12-24T14:29:19.906Z,98433.16
2022-12-24T14:31:54.106Z,98432.50
2022-12-24T14:34:20.622Z,98427.28
2022-12-24T14:36:49.096Z,98421.78
2022-12-24T14:39:27.950Z,98428.03
2022-12-24T14:42:04.553Z,98431.47
2022-12-24T14:44:58.361Z,98435.88
2022-12-24T14:47:55.064Z,98434.00
2022-12-24T14:50:48.060Z,98442.56
2022-12-24T14:53:25.580Z,98450.81
2022-12-24T14:55:52.251Z,98455.91
2022-12-24T14:58:24.795Z,98458.28
2022-12-24T15:00:53.124Z,98453.41
2022-12-24T15:03:22.694Z,98464.28
2022-12-24T15:05:59.531Z,98458.03
2022-12-24T15:08:37.848Z,98466.91
2022-12-24T15:11:08.795Z,98459.41
2022-12-24T15:13:37.329Z,98469.56
2022-12-24T15:16:08.362Z,98462.88
2022-12-24T15:18:53.058Z,98464.34
2022-12-24T15:21:42.404Z,98474.16
2022-12-24T15:24:23.884Z,98478.06
2022-12-24T15:26:50.345Z,98486.69
2022-12-24T15:29:23.276Z,98491.94
2022-12-24T15:31:58.163Z,98501.78
2022-12-24T15:34:29.126Z,98496.66
2022-12-24T15:37:17.127Z,98507.22
2022-12-24T15:39:44.955Z,98503.94
2022-12-24T15:42:19.116Z,98500.59
2022-12-24T15:45:02.892Z,98505.34
2022-12-24T15:47:38.190Z,98497.88
2022-12-24T15:50:30.170Z,98508.09
2022-12-24T15:53:20.640Z,98512.31
2022-12-24T15:56:04.137Z,98513.38
2022-12-24T15:58:33.804Z,98507.78
2022-12-24T16:01:13.788Z,98505.47
2022-12-24T16:03:50.768Z,98513.44
2022-12-24T16:06:17.526Z,98510.16
2022-12-24T16:08:45.617Z,98514.63
2022-12-24T16:11:17.435Z,98505.34
2022-12-24T16:14:00.414Z,98501.13
2022-12-24T16:16:42.026Z,98502.19
2022-12-24T16:19:20.624Z,98495.03
2022-12-24T16:21:52.721Z,98492.38
2022-12-24T16:24:23.885Z,98497.91
2022-12-24T16:26:51.567Z,98507.28
2022-12-24T16:29:19.307Z,98509.66
2022-12-24T16:31:54.754Z,98512.38
2022-12-24T16:34:26.260Z,98523.41
2022-12-24T16:36:52.896Z,98529.19
2022-12-24T16:39:24.084Z,98531.75
2022-12-24T16:42:13.699Z,98530.88
2022-12-24T16:44:41.406Z,98534.06
2022-12-24T16:47:13.875Z,98528.78
2022-12-24T16:49:40.425Z,98527.59
2022-12-24T16:52:14.523Z,98527.72
2022-12-24T16:54:41.075Z,98525.28
2022-12-24T16:57:09.977Z,98531.88
2022-12-24T16:59:37.871Z,98527.66
2022-12-24T17:02:10.828Z,98519.63
2022-12-24T17:04:41.122Z,98521.19
2022-12-24T17:07:08.270Z,98520.75
2022-12-24T17:09:34.766Z,98529.06
2022-12-24T17:12:01.254Z,98533.31
2022-12-24T17:14:27.672Z,98549.00
2022-12-24T17:16:54.173Z,98533.38
2022-12-24T17:19:20.648Z,98537.09
2022-12-24T17:21:47.119Z,98531.94
2022-12-24T17:24:14.379Z,98544.72
2022-12-24T17:26:42.466Z,98545.97
2022-12-24T17:29:09.612Z,98548.06
2022-12-24T17:31:39.163Z,98544.47
2022-12-24T17:34:05.738Z,98539.94
2022-12-24T17:36:32.516Z,98536.28
2022-12-24T17:38:59.021Z,98529.56
2022-12-24T17:41:25.534Z,98521.41
2022-12-24T17:43:52.018Z,98517.59
2022-12-24T17:46:23.382Z,98524.41
2022-12-24T17:48:51.120Z,98522.22
2022-12-24T17:51:20.508Z,98525.22
2022-12-24T17:53:47.928Z,98531.38
2022-12-24T17:56:15.507Z,98536.44
2022-12-24T17:58:43.622Z,98536.66
2022-12-24T18:01:15.637Z,98538.06
2022-12-24T18:03:42.638Z,98539.75
2022-12-24T18:06:11.423Z,98550.22
2022-12-24T18:08:39.566Z,98555.75
2022-12-24T18:11:16.944Z,98552.44
2022-12-24T18:13:43.693Z,98544.25
2022-12-24T18:16:18.913Z,98547.88
2022-12-24T18:18:45.863Z,98543.22
2022-12-24T18:21:12.704Z,98536.69
2022-12-24T18:23:43.155Z,98531.88
2022-12-24T18:26:10.643Z,98536.88
2022-12-24T18:28:37.091Z,98522.69
2022-12-24T18:31:06.366Z,98521.97
2022-12-24T18:33:33.955Z,98515.00
2022-12-24T18:36:00.496Z,98521.91
2022-12-24T18:38:27.803Z,98525.22
2022-12-24T18:40:54.328Z,98533.97
2022-12-24T18:43:20.808Z,98530.06
2022-12-24T18:45:47.695Z,98536.56
2022-12-24T18:48:14.200Z,98541.81
2022-12-24T18:50:41.643Z,98549.78
2022-12-24T18:53:08.158Z,98538.25
2022-12-24T18:55:36.210Z,98537.66
2022-12-24T18:58:03.177Z,98541.81
2022-12-24T19:00:30.018Z,98550.63
2022-12-24T19:02:56.611Z,98555.81
2022-12-24T19:05:23.713Z,98549.81
2022-12-24T19:07:50.189Z,98564.34
2022-12-24T19:10:16.783Z,98561.50
2022-12-24T19:12:43.395Z,98567.41
2022-12-24T19:15:10.381Z,98568.03
2022-12-24T19:17:36.886Z,98570.78
2022-12-24T19:20:03.675Z,98575.75
2022-12-24T19:22:30.192Z,98573.19
2022-12-24T19:24:56.740Z,98577.09
2022-12-24T19:27:23.220Z,98571.66
2022-12-24T19:29:49.759Z,98566.03
2022-12-24T19:32:16.244Z,98560.50
2022-12-24T19:34:42.792Z,98553.78
2022-12-24T19:37:09.537Z,98550.88
2022-12-24T19:39:35.993Z,98558.59
2022-12-24T19:42:02.931Z,98555.34
2022-12-24T19:44:29.599Z,98565.44
2022-12-24T19:46:56.093Z,98572.09
2022-12-24T19:49:22.585Z,98571.84
2022-12-24T19:51:49.432Z,98584.28
2022-12-24T19:54:19.211Z,98584.69
2022-12-24T19:56:46.364Z,98595.66
2022-12-24T19:59:12.950Z,98595.19
2022-12-24T20:01:39.739Z,98600.84
2022-12-24T20:04:06.495Z,98606.09
2022-12-24T20:06:35.080Z,98616.72
2022-12-24T20:09:07.219Z,98616.63
2022-12-24T20:11:34.888Z,98625.38
2022-12-24T20:14:03.448Z,98620.13
2022-12-24T20:16:30.202Z,98618.47
2022-12-24T20:18:59.367Z,98612.66
2022-12-24T20:21:26.920Z,98617.38
2022-12-24T20:23:54.471Z,98613.47
2022-12-24T20:26:23.684Z,98616.69
2022-12-24T20:28:50.982Z,98615.47
2022-12-24T20:31:27.371Z,98616.38
2022-12-24T20:33:55.293Z,98624.38
2022-12-24T20:36:23.099Z,98611.88
2022-12-24T20:38:50.361Z,98603.97
2022-12-24T20:41:19.086Z,98603.59
2022-12-24T20:43:48.612Z,98605.66
2022-12-24T20:46:16.964Z,98599.91
2022-12-24T20:48:43.927Z,98600.97
2022-12-24T20:51:20.980Z,98594.78
2022-12-24T20:53:50.819Z,98592.22
2022-12-24T20:56:18.081Z,98598.81
2022-12-24T20:58:45.274Z,98584.53
2022-12-24T21:01:15.674Z,98567.28
2022-12-24T21:03:42.393Z,98573.63
2022-12-24T21:06:08.945Z,98572.53
2022-12-24T21:08:36.188Z,98570.91
2022-12-24T21:11:21.033Z,98562.69
2022-12-24T21:13:47.548Z,98580.81
2022-12-24T21:16:14.053Z,98575.97
2022-12-24T21:18:41.716Z,98575.97
2022-12-24T21:21:08.229Z,98576.91
2022-12-24T21:23:36.192Z,98576.72
2022-12-24T21:26:05.017Z,98574.63
2022-12-24T21:28:32.784Z,98581.03
2022-12-24T21:30:59.997Z,98580.63
2022-12-24T21:33:26.884Z,98578.25
2022-12-24T21:35:59.912Z,98587.81
2022-12-24T21:38:27.263Z,98584.53
2022-12-24T21:41:02.427Z,98582.44
2022-12-24T21:43:34.202Z,98574.56
2022-12-24T21:46:01.173Z,98563.84
2022-12-24T21:48:46.688Z,98561.97
2022-12-24T21:51:13.168Z,98549.13
2022-12-24T21:53:58.473Z,98546.94
2022-12-24T21:56:24.955Z,98544.63
2022-12-24T21:58:51.917Z,98544.28
2022-12-24T22:01:19.634Z,98548.53
2022-12-24T22:03:49.871Z,98556.28
2022-12-24T22:06:35.040Z,98552.91
2022-12-24T22:09:20.331Z,98562.22
2022-12-24T22:11:54.228Z,98558.97
2022-12-24T22:14:21.042Z,98562.00
2022-12-24T22:16:47.630Z,98558.56
2022-12-24T22:19:14.148Z,98563.16
2022-12-24T22:21:40.721Z,98556.97
2022-12-24T22:24:07.715Z,98554.41
2022-12-24T22:26:34.199Z,98552.25
2022-12-24T22:29:00.647Z,98547.91
2022-12-24T22:31:27.350Z,98545.16
2022-12-24T22:33:54.189Z,98552.44
2022-12-24T22:36:20.812Z,98545.34
2022-12-24T22:38:47.392Z,98553.47
2022-12-24T22:41:16.755Z,98557.88
2022-12-24T22:43:44.142Z,98558.50
2022-12-24T22:46:13.284Z,98564.34
2022-12-24T22:48:41.765Z,98556.91
2022-12-24T22:51:10.494Z,98562.94
2022-12-24T22:53:39.041Z,98563.16
2022-12-24T22:56:06.855Z,98563.03
2022-12-24T22:58:34.052Z,98562.09
2022-12-24T23:01:00.635Z,98560.13
2022-12-24T23:03:28.793Z,98552.13
2022-12-24T23:06:00.137Z,98562.63
2022-12-24T23:08:27.972Z,98552.16
2022-12-24T23:11:11.018Z,98555.81
2022-12-24T23:13:58.679Z,98551.81
2022-12-24T23:16:27.215Z,98556.16
2022-12-24T23:18:54.867Z,98554.47
2022-12-24T23:21:21.321Z,98558.44
2022-12-24T23:23:47.887Z,98565.31
2022-12-24T23:26:17.045Z,98563.97
2022-12-24T23:28:44.732Z,98571.16
2022-12-24T23:31:12.758Z,98572.44
2022-12-24T23:33:39.622Z,98574.75
2022-12-24T23:36:06.505Z,98577.06
2022-12-24T23:38:33.133Z,98582.03
2022-12-24T23:41:01.950Z,98583.06
2022-12-24T23:43:29.072Z,98585.28
2022-12-24T23:45:55.923Z,98581.78
2022-12-24T23:48:24.214Z,98575.91
2022-12-24T23:50:51.470Z,98570.50
2022-12-24T23:53:19.667Z,98568.97
2022-12-24T23:55:46.122Z,98572.25
2022-12-24T23:58:14.667Z,98563.09
